createdAt,value
2022-12-29T00:01:59.463Z,1.20
2022-12-29T00:04:26.371Z,1.20
2022-12-29T00:06:55.269Z,1.10
2022-12-29T00:09:21.990Z,1.47
2022-12-29T00:11:48.943Z,1.43
2022-12-29T00:14:34.015Z,1.17
2022-12-29T00:17:00.759Z,1.07
2022-12-29T00:19:46.221Z,1.30
2022-12-29T00:22:32.504Z,1.27
2022-12-29T00:25:02.564Z,1.30
2022-12-29T00:27:48.686Z,1.00
2022-12-29T00:30:38.773Z,1.10
2022-12-29T00:33:30.433Z,1.13
2022-12-29T00:36:01.821Z,1.40
2022-12-29T00:38:47.729Z,1.00
2022-12-29T00:41:32.899Z,1.10
2022-12-29T00:44:06.814Z,1.20
2022-12-29T00:46:38.770Z,1.07
2022-12-29T00:49:25.243Z,1.07
2022-12-29T00:51:52.273Z,1.10
2022-12-29T00:54:19.583Z,0.83
2022-12-29T00:56:50.304Z,1.00
2022-12-29T00:59:17.048Z,1.13
2022-12-29T01:01:45.250Z,0.83
2022-12-29T01:04:12.207Z,1.00
2022-12-29T01:06:40.875Z,0.90
2022-12-29T01:09:27.080Z,0.80
2022-12-29T01:11:53.697Z,0.87
2022-12-29T01:14:20.741Z,1.00
2022-12-29T01:16:47.899Z,0.90
2022-12-29T01:19:15.867Z,0.90
2022-12-29T01:21:42.733Z,1.10
2022-12-29T01:24:09.436Z,1.00
2022-12-29T01:26:36.239Z,0.90
2022-12-29T01:29:02.780Z,0.80
2022-12-29T01:31:29.544Z,0.90
2022-12-29T01:33:56.295Z,0.70
2022-12-29T01:36:23.165Z,0.63
2022-12-29T01:38:49.713Z,0.80
2022-12-29T01:41:17.329Z,0.93
2022-12-29T01:43:55.008Z,0.90
2022-12-29T01:46:42.902Z,0.70
2022-12-29T01:49:09.554Z,0.70
2022-12-29T01:51:40.201Z,0.73
2022-12-29T01:54:12.364Z,0.50
2022-12-29T01:56:38.942Z,0.60
2022-12-29T01:59:09.265Z,0.77
2022-12-29T02:01:35.978Z,0.80
2022-12-29T02:04:02.713Z,0.70
2022-12-29T02:06:53.133Z,0.63
2022-12-29T02:09:19.988Z,0.57
2022-12-29T02:11:46.903Z,0.40
2022-12-29T02:14:14.899Z,0.60
2022-12-29T02:17:23.156Z,0.70
2022-12-29T02:20:37.810Z,0.67
2022-12-29T02:23:32.663Z,0.67
2022-12-29T02:25:59.206Z,0.60
2022-12-29T02:28:31.858Z,0.80
2022-12-29T02:31:10.646Z,0.60
2022-12-29T02:33:47.702Z,0.47
2022-12-29T02:36:24.233Z,0.70
2022-12-29T02:39:06.216Z,0.50
2022-12-29T02:41:48.065Z,0.73
2022-12-29T02:44:36.443Z,0.53
2022-12-29T02:47:12.608Z,0.60
2022-12-29T02:50:26.822Z,0.70
2022-12-29T02:52:58.793Z,0.77
2022-12-29T02:55:25.508Z,0.60
2022-12-29T02:58:14.712Z,0.80
2022-12-29T03:01:06.195Z,0.70
2022-12-29T03:04:05.631Z,0.67
2022-12-29T03:06:44.009Z,0.77
2022-12-29T03:09:58.452Z,0.77
2022-12-29T03:12:50.752Z,0.77
2022-12-29T03:15:52.487Z,0.83
2022-12-29T03:18:26.030Z,0.90
2022-12-29T03:20:56.288Z,0.80
2022-12-29T03:23:23.544Z,0.70
2022-12-29T03:25:53.692Z,0.60
2022-12-29T03:28:24.030Z,0.80
2022-12-29T03:30:50.564Z,0.70
2022-12-29T03:33:21.472Z,0.93
2022-12-29T03:35:48.948Z,0.67
2022-12-29T03:38:28.265Z,1.33
2022-12-29T03:40:58.032Z,0.90
2022-12-29T03:43:24.981Z,0.90
2022-12-29T03:45:51.738Z,1.10
2022-12-29T03:48:18.286Z,0.90
2022-12-29T03:50:45.241Z,0.90
2022-12-29T03:53:11.964Z,0.80
2022-12-29T03:55:38.528Z,1.13
2022-12-29T03:58:05.199Z,1.23
2022-12-29T04:00:31.845Z,0.80
2022-12-29T04:02:58.624Z,0.97
2022-12-29T04:05:25.581Z,0.67
2022-12-29T04:07:52.349Z,0.87
2022-12-29T04:10:18.923Z,1.03
2022-12-29T04:12:47.453Z,1.17
2022-12-29T04:15:14.248Z,1.83
2022-12-29T04:17:40.759Z,0.90
2022-12-29T04:20:26.648Z,0.90
2022-12-29T04:23:03.112Z,0.83
2022-12-29T04:25:29.725Z,0.83
2022-12-29T04:27:56.326Z,0.83
2022-12-29T04:30:23.137Z,0.83
2022-12-29T04:32:49.992Z,0.80
2022-12-29T04:35:16.590Z,1.03
2022-12-29T04:37:43.642Z,0.70
2022-12-29T04:40:10.799Z,0.90
2022-12-29T04:42:37.562Z,0.90
2022-12-29T04:45:04.372Z,0.70
2022-12-29T04:47:30.861Z,0.77
2022-12-29T04:49:57.482Z,0.77
2022-12-29T04:52:24.031Z,0.83
2022-12-29T04:54:50.581Z,0.97
2022-12-29T04:57:17.250Z,0.87
2022-12-29T04:59:43.937Z,0.80
2022-12-29T05:02:10.606Z,1.00
2022-12-29T05:04:37.292Z,0.77
2022-12-29T05:07:03.908Z,0.80
2022-12-29T05:09:31.313Z,0.80
2022-12-29T05:11:58.020Z,0.87
2022-12-29T05:14:24.580Z,0.90
2022-12-29T05:16:51.191Z,1.00
2022-12-29T05:19:18.555Z,0.70
2022-12-29T05:21:45.335Z,1.00
2022-12-29T05:24:11.835Z,0.90
2022-12-29T05:26:38.453Z,1.03
2022-12-29T05:29:05.260Z,1.07
2022-12-29T05:31:31.901Z,0.87
2022-12-29T05:33:58.518Z,0.80
2022-12-29T05:36:25.084Z,0.80
2022-12-29T05:38:51.580Z,0.90
2022-12-29T05:41:18.356Z,0.80
2022-12-29T05:43:45.061Z,0.97
2022-12-29T05:46:11.845Z,0.77
2022-12-29T05:48:38.636Z,0.70
2022-12-29T05:51:05.270Z,0.80
2022-12-29T05:53:31.803Z,1.00
2022-12-29T05:55:58.582Z,0.90
2022-12-29T05:58:25.207Z,1.10
2022-12-29T06:00:52.311Z,1.20
2022-12-29T06:03:18.997Z,1.07
2022-12-29T06:05:47.119Z,1.00
2022-12-29T06:08:14.092Z,1.30
2022-12-29T06:10:40.958Z,1.07
2022-12-29T06:13:07.785Z,1.00
2022-12-29T06:15:34.658Z,0.97
2022-12-29T06:18:01.785Z,1.30
2022-12-29T06:20:28.357Z,0.93
2022-12-29T06:22:54.829Z,0.90
2022-12-29T06:25:21.368Z,0.87
2022-12-29T06:27:48.036Z,1.00
2022-12-29T06:30:16.013Z,1.20
2022-12-29T06:32:42.727Z,1.37
2022-12-29T06:35:09.825Z,1.03
2022-12-29T06:37:36.640Z,1.10
2022-12-29T06:40:03.409Z,1.20
2022-12-29T06:42:29.950Z,1.30
2022-12-29T06:44:59.537Z,0.90
2022-12-29T06:47:26.086Z,1.00
2022-12-29T06:49:52.689Z,1.10
2022-12-29T06:52:19.350Z,1.10
2022-12-29T06:54:45.874Z,1.00
2022-12-29T06:57:12.614Z,1.27
2022-12-29T06:59:39.504Z,0.80
2022-12-29T07:02:06.570Z,1.15
2022-12-29T07:04:33.261Z,1.50
2022-12-29T07:07:00.368Z,1.03
2022-12-29T07:09:27.112Z,1.00
2022-12-29T07:11:53.779Z,1.00
2022-12-29T07:14:20.409Z,1.30
2022-12-29T07:16:47.052Z,1.30
2022-12-29T07:19:13.591Z,1.23
2022-12-29T07:21:46.363Z,1.93
2022-12-29T07:24:12.897Z,1.50
2022-12-29T07:26:39.369Z,2.00
2022-12-29T07:29:05.962Z,1.50
2022-12-29T07:31:32.507Z,1.20
2022-12-29T07:33:59.014Z,1.30
2022-12-29T07:36:29.405Z,1.23
2022-12-29T07:39:00.617Z,1.40
2022-12-29T07:41:27.256Z,1.20
2022-12-29T07:43:53.765Z,1.00
2022-12-29T07:46:54.218Z,1.00
2022-12-29T07:49:06.946Z,1.10
2022-12-29T07:51:33.646Z,1.20
2022-12-29T07:54:01.532Z,1.20
2022-12-29T07:56:28.598Z,1.20
2022-12-29T07:58:55.097Z,1.40
2022-12-29T08:01:22.517Z,1.07
2022-12-29T08:03:54.026Z,1.47
2022-12-29T08:06:23.547Z,1.33
2022-12-29T08:08:50.682Z,1.50
2022-12-29T08:11:17.325Z,1.70
2022-12-29T08:13:43.872Z,1.20
2022-12-29T08:16:10.460Z,1.30
2022-12-29T08:18:37.104Z,1.47
2022-12-29T08:21:04.611Z,1.20
2022-12-29T08:23:31.637Z,1.60
2022-12-29T08:25:59.714Z,1.33
2022-12-29T08:28:26.892Z,1.70
2022-12-29T08:30:53.944Z,1.53
2022-12-29T08:33:20.625Z,1.37
2022-12-29T08:35:47.164Z,1.27
2022-12-29T08:38:14.273Z,1.60
2022-12-29T08:40:41.046Z,1.30
2022-12-29T08:43:08.758Z,1.60
2022-12-29T08:45:35.403Z,1.70
2022-12-29T08:48:02.084Z,1.57
2022-12-29T08:50:28.596Z,1.47
2022-12-29T08:52:55.294Z,1.50
2022-12-29T08:55:21.815Z,1.40
2022-12-29T08:57:48.353Z,1.70
2022-12-29T09:00:16.163Z,1.40
2022-12-29T09:02:42.848Z,1.63
2022-12-29T09:05:10.728Z,1.60
2022-12-29T09:07:37.286Z,1.43
2022-12-29T09:10:04.683Z,1.43
2022-12-29T09:12:36.123Z,1.63
2022-12-29T09:15:04.325Z,1.60
2022-12-29T09:17:46.505Z,1.57
2022-12-29T09:20:14.741Z,1.53
2022-12-29T09:22:41.509Z,1.70
2022-12-29T09:25:09.467Z,2.07
2022-12-29T09:27:36.407Z,1.73
2022-12-29T09:30:05.526Z,1.97
2022-12-29T09:32:34.009Z,1.70
2022-12-29T09:35:01.724Z,1.60
2022-12-29T09:37:28.415Z,1.70
2022-12-29T09:39:55.149Z,1.97
2022-12-29T09:43:16.956Z,1.73
2022-12-29T09:45:46.754Z,1.37
2022-12-29T09:48:19.939Z,2.07
2022-12-29T09:50:51.969Z,1.70
2022-12-29T09:53:24.348Z,1.70
2022-12-29T09:55:53.976Z,1.77
2022-12-29T09:58:41.730Z,1.73
2022-12-29T10:01:39.705Z,1.60
2022-12-29T10:04:06.343Z,1.90
2022-12-29T10:07:03.608Z,1.50
2022-12-29T10:09:35.976Z,1.90
2022-12-29T10:12:24.177Z,1.70
2022-12-29T10:14:59.963Z,1.63
2022-12-29T10:17:47.646Z,1.83
2022-12-29T10:20:14.242Z,1.60
2022-12-29T10:22:46.931Z,2.00
2022-12-29T10:25:19.190Z,1.57
2022-12-29T10:27:49.407Z,2.03
2022-12-29T10:30:16.591Z,1.60
2022-12-29T10:32:48.950Z,1.50
2022-12-29T10:35:19.346Z,1.90
2022-12-29T10:37:59.866Z,1.80
2022-12-29T10:41:16.100Z,2.27
2022-12-29T10:43:45.662Z,2.07
2022-12-29T10:46:28.521Z,2.00
2022-12-29T10:48:55.149Z,1.33
2022-12-29T10:51:31.669Z,1.70
2022-12-29T10:54:01.495Z,1.90
2022-12-29T10:56:31.049Z,1.50
2022-12-29T10:59:00.803Z,1.53
2022-12-29T11:01:33.604Z,1.67
2022-12-29T11:04:29.799Z,2.13
2022-12-29T11:06:57.522Z,2.00
2022-12-29T11:09:42.197Z,1.90
2022-12-29T11:12:39.197Z,1.40
2022-12-29T11:15:11.263Z,1.90
2022-12-29T11:17:48.431Z,1.80
2022-12-29T11:20:32.774Z,1.87
2022-12-29T11:23:00.655Z,2.00
2022-12-29T11:25:27.553Z,1.70
2022-12-29T11:28:00.048Z,1.83
2022-12-29T11:30:29.877Z,1.93
2022-12-29T11:32:57.360Z,1.77
2022-12-29T11:35:44.280Z,2.00
2022-12-29T11:38:35.812Z,1.80
2022-12-29T11:41:03.733Z,1.80
2022-12-29T11:43:39.542Z,2.00
2022-12-29T11:46:06.525Z,2.47
2022-12-29T11:48:39.582Z,2.13
2022-12-29T11:51:07.298Z,1.60
2022-12-29T11:53:40.334Z,1.83
2022-12-29T11:56:09.957Z,1.70
2022-12-29T11:58:38.499Z,2.20
2022-12-29T12:01:12.355Z,2.00
2022-12-29T12:03:45.166Z,1.60
2022-12-29T12:06:17.208Z,1.70
2022-12-29T12:08:52.810Z,2.57
2022-12-29T12:11:43.096Z,1.80
2022-12-29T12:14:30.762Z,1.80
2022-12-29T12:17:02.711Z,1.77
2022-12-29T12:20:00.289Z,1.80
2022-12-29T12:22:37.247Z,2.23
2022-12-29T12:25:22.629Z,1.50
2022-12-29T12:27:53.389Z,1.70
2022-12-29T12:30:21.901Z,1.63
2022-12-29T12:33:07.365Z,1.97
2022-12-29T12:36:03.465Z,1.90
2022-12-29T12:38:56.848Z,1.40
2022-12-29T12:41:47.838Z,2.30
2022-12-29T12:44:20.625Z,2.43
2022-12-29T12:47:09.718Z,2.00
2022-12-29T12:49:51.826Z,1.63
2022-12-29T12:52:40.274Z,1.90
2022-12-29T12:55:42.200Z,2.63
2022-12-29T12:58:25.803Z,1.80
2022-12-29T13:00:58.432Z,1.53
2022-12-29T13:04:07.927Z,2.33
2022-12-29T13:06:50.351Z,1.90
2022-12-29T13:09:49.232Z,1.80
2022-12-29T13:12:33.406Z,2.37
2022-12-29T13:15:03.762Z,1.90
2022-12-29T13:17:52.155Z,1.80
2022-12-29T13:20:30.694Z,1.47
2022-12-29T13:23:01.198Z,2.00
2022-12-29T13:25:42.707Z,1.90
2022-12-29T13:28:37.405Z,2.10
2022-12-29T13:31:13.141Z,1.70
2022-12-29T13:33:49.737Z,2.20
2022-12-29T13:36:31.035Z,1.93
2022-12-29T13:39:14.856Z,1.97
2022-12-29T13:41:55.424Z,2.27
2022-12-29T13:44:46.223Z,1.90
2022-12-29T13:47:22.103Z,2.10
2022-12-29T13:49:49.202Z,2.10
2022-12-29T13:52:18.662Z,1.73
2022-12-29T13:55:08.911Z,2.03
2022-12-29T13:57:38.355Z,1.90
2022-12-29T14:00:12.570Z,1.50
2022-12-29T14:02:55.125Z,1.90
2022-12-29T14:05:21.929Z,2.30
2022-12-29T14:07:50.208Z,1.83
2022-12-29T14:10:36.524Z,1.87
2022-12-29T14:13:11.309Z,1.80
2022-12-29T14:15:42.573Z,1.73
2022-12-29T14:18:20.893Z,1.40
2022-12-29T14:21:16.601Z,1.67
2022-12-29T14:23:45.460Z,1.87
2022-12-29T14:26:18.461Z,1.63
2022-12-29T14:28:49.218Z,1.80
2022-12-29T14:31:15.803Z,1.77
2022-12-29T14:34:02.413Z,1.73
2022-12-29T14:36:43.974Z,2.00
2022-12-29T14:39:25.963Z,1.93
2022-12-29T14:42:07.572Z,1.70
2022-12-29T14:44:34.389Z,1.80
2022-12-29T14:47:08.356Z,1.83
2022-12-29T14:49:42.287Z,2.17
2022-12-29T14:52:29.290Z,1.50
2022-12-29T14:54:58.054Z,1.77
2022-12-29T14:57:45.798Z,1.87
2022-12-29T15:00:23.216Z,2.13
2022-12-29T15:03:10.773Z,1.83
2022-12-29T15:05:49.991Z,1.80
2022-12-29T15:08:23.867Z,2.20
2022-12-29T15:10:58.410Z,1.73
2022-12-29T15:13:33.569Z,1.70
2022-12-29T15:16:00.289Z,1.77
2022-12-29T15:18:31.632Z,1.93
2022-12-29T15:21:00.814Z,2.23
2022-12-29T15:23:28.059Z,2.00
2022-12-29T15:26:02.001Z,1.50
2022-12-29T15:28:30.162Z,1.50
2022-12-29T15:31:03.800Z,2.10
2022-12-29T15:33:30.821Z,1.80
2022-12-29T15:36:04.337Z,2.10
2022-12-29T15:38:38.586Z,1.80
2022-12-29T15:41:16.073Z,1.90
2022-12-29T15:43:46.958Z,1.93
2022-12-29T15:46:14.064Z,1.90
2022-12-29T15:48:41.392Z,1.93
2022-12-29T15:51:30.139Z,2.00
2022-12-29T15:53:57.093Z,2.30
2022-12-29T15:56:23.714Z,2.00
2022-12-29T15:58:52.102Z,1.87
2022-12-29T16:01:37.532Z,1.70
2022-12-29T16:04:09.710Z,2.03
2022-12-29T16:06:40.746Z,2.10
2022-12-29T16:09:18.986Z,1.93
2022-12-29T16:11:54.655Z,1.43
2022-12-29T16:14:28.289Z,1.50
2022-12-29T16:16:58.453Z,2.07
2022-12-29T16:19:37.265Z,1.93
2022-12-29T16:22:11.091Z,1.70
2022-12-29T16:24:40.245Z,2.13
2022-12-29T16:27:24.663Z,1.70
2022-12-29T16:29:55.513Z,2.07
2022-12-29T16:32:28.908Z,1.77
2022-12-29T16:35:14.219Z,2.20
2022-12-29T16:37:41.055Z,2.10
2022-12-29T16:40:27.403Z,2.00
2022-12-29T16:43:02.244Z,1.97
2022-12-29T16:45:47.545Z,1.93
2022-12-29T16:48:14.154Z,1.97
2022-12-29T16:50:42.952Z,2.23
2022-12-29T16:53:31.101Z,2.30
2022-12-29T16:55:58.833Z,1.90
2022-12-29T16:58:28.797Z,1.83
2022-12-29T17:01:07.131Z,1.93
2022-12-29T17:03:40.873Z,2.03
2022-12-29T17:06:15.419Z,1.90
2022-12-29T17:08:43.053Z,1.73
2022-12-29T17:11:40.400Z,2.00
2022-12-29T17:14:33.827Z,2.10
2022-12-29T17:17:03.887Z,2.00
2022-12-29T17:19:33.536Z,1.97
2022-12-29T17:22:00.774Z,2.30
2022-12-29T17:24:27.913Z,2.20
2022-12-29T17:26:57.310Z,2.70
2022-12-29T17:29:37.387Z,2.40
2022-12-29T17:32:06.618Z,1.90
2022-12-29T17:34:33.911Z,2.37
2022-12-29T17:37:00.557Z,2.27
2022-12-29T17:39:27.300Z,2.27
2022-12-29T17:41:53.927Z,2.13
2022-12-29T17:44:21.666Z,1.70
2022-12-29T17:46:49.410Z,1.73
2022-12-29T17:49:18.048Z,1.30
2022-12-29T17:51:45.978Z,1.33
2022-12-29T17:54:24.081Z,1.77
2022-12-29T17:56:50.748Z,1.43
2022-12-29T17:59:18.519Z,1.60
2022-12-29T18:01:46.859Z,1.50
2022-12-29T18:04:16.795Z,1.47
2022-12-29T18:06:44.194Z,1.43
2022-12-29T18:09:10.937Z,1.57
2022-12-29T18:11:42.659Z,1.53
2022-12-29T18:14:14.298Z,1.50
2022-12-29T18:16:40.976Z,1.50
2022-12-29T18:19:07.859Z,1.43
2022-12-29T18:21:34.375Z,1.50
2022-12-29T18:24:00.938Z,1.77
2022-12-29T18:26:31.668Z,1.70
2022-12-29T18:28:59.645Z,1.97
2022-12-29T18:31:28.504Z,1.97
2022-12-29T18:33:57.033Z,1.77
2022-12-29T18:36:24.074Z,1.90
2022-12-29T18:38:53.330Z,1.80
2022-12-29T18:41:22.685Z,2.10
2022-12-29T18:43:51.252Z,2.10
2022-12-29T18:46:22.724Z,2.20
2022-12-29T18:48:50.180Z,2.27
2022-12-29T18:51:21.737Z,1.87
2022-12-29T18:53:49.216Z,1.93
2022-12-29T18:56:15.857Z,2.10
2022-12-29T18:58:42.547Z,3.40
2022-12-29T19:01:19.511Z,2.20
2022-12-29T19:03:46.296Z,2.30
2022-12-29T19:06:12.839Z,2.07
2022-12-29T19:08:39.706Z,2.43
2022-12-29T19:11:06.508Z,2.73
2022-12-29T19:13:33.821Z,2.40
2022-12-29T19:16:00.574Z,2.10
2022-12-29T19:18:45.688Z,2.60
2022-12-29T19:21:14.390Z,2.73
2022-12-29T19:23:41.135Z,3.10
2022-12-29T19:26:09.516Z,2.83
2022-12-29T19:28:36.210Z,2.53
2022-12-29T19:31:03.336Z,2.93
2022-12-29T19:33:30.142Z,3.63
2022-12-29T19:36:01.804Z,2.83
2022-12-29T19:38:29.030Z,3.10
2022-12-29T19:40:56.662Z,3.20
2022-12-29T19:43:23.250Z,3.00
2022-12-29T19:45:51.393Z,3.43
2022-12-29T19:48:20.270Z,3.00
2022-12-29T19:50:47.472Z,2.97
2022-12-29T19:53:14.557Z,3.53
2022-12-29T19:55:45.474Z,3.30
2022-12-29T19:58:12.755Z,5.87
2022-12-29T20:00:40.918Z,3.40
2022-12-29T20:03:07.872Z,3.03
2022-12-29T20:05:34.590Z,3.53
2022-12-29T20:08:01.177Z,3.70
2022-12-29T20:10:28.105Z,4.10
2022-12-29T20:12:54.667Z,2.97
2022-12-29T20:15:21.515Z,3.60
2022-12-29T20:20:35.672Z,3.07
2022-12-29T20:23:02.300Z,2.93
2022-12-29T20:25:46.619Z,3.03
2022-12-29T20:28:17.208Z,3.13
2022-12-29T20:30:44.321Z,2.87
2022-12-29T20:33:10.972Z,2.80
2022-12-29T20:35:37.578Z,2.80
2022-12-29T20:38:05.113Z,3.03
2022-12-29T20:40:32.168Z,3.27
2022-12-29T20:42:58.750Z,2.80
2022-12-29T20:45:26.022Z,2.83
2022-12-29T20:47:52.702Z,2.43
2022-12-29T20:50:19.793Z,3.23
2022-12-29T20:52:47.134Z,3.07
2022-12-29T20:55:14.139Z,3.10
2022-12-29T20:58:21.477Z,3.37
2022-12-29T21:00:30.900Z,3.00
2022-12-29T21:02:59.102Z,2.70
2022-12-29T21:05:27.018Z,3.03
2022-12-29T21:07:54.765Z,2.73
2022-12-29T21:10:22.123Z,2.83
2022-12-29T21:12:48.981Z,2.57
2022-12-29T21:15:16.674Z,2.40
2022-12-29T21:17:44.075Z,2.50
2022-12-29T21:20:32.198Z,2.30
2022-12-29T21:23:00.695Z,2.60
2022-12-29T21:25:36.972Z,2.70
2022-12-29T21:28:05.405Z,2.80
2022-12-29T21:30:33.064Z,2.67
2022-12-29T21:32:59.749Z,3.03
2022-12-29T21:35:26.718Z,2.20
2022-12-29T21:37:53.799Z,2.77
2022-12-29T21:40:22.700Z,3.20
2022-12-29T21:42:49.891Z,3.03
2022-12-29T21:45:25.504Z,2.23
2022-12-29T21:48:21.278Z,2.77
2022-12-29T21:51:08.735Z,2.53
2022-12-29T21:53:40.318Z,2.50
2022-12-29T21:56:17.732Z,2.90
2022-12-29T21:59:05.600Z,3.00
2022-12-29T22:01:53.393Z,2.83
2022-12-29T22:04:41.247Z,2.87
2022-12-29T22:07:28.489Z,2.50
2022-12-29T22:10:14.495Z,2.40
2022-12-29T22:13:00.267Z,3.03
2022-12-29T22:15:32.450Z,3.20
2022-12-29T22:18:01.054Z,2.73
2022-12-29T22:20:29.661Z,3.33
2022-12-29T22:22:56.344Z,3.00
2022-12-29T22:25:23.580Z,2.67
2022-12-29T22:27:54.222Z,2.80
2022-12-29T22:30:26.665Z,2.80
2022-12-29T22:32:53.266Z,2.70
2022-12-29T22:35:19.849Z,2.83
2022-12-29T22:37:46.459Z,2.63
2022-12-29T22:40:13.232Z,2.93
2022-12-29T22:42:40.096Z,2.87
2022-12-29T22:45:07.155Z,3.60
2022-12-29T22:47:34.102Z,3.20
2022-12-29T22:50:00.714Z,3.60
2022-12-29T22:52:27.548Z,2.63
2022-12-29T22:54:54.122Z,3.03
2022-12-29T22:57:20.755Z,3.33
2022-12-29T22:59:47.314Z,2.50
2022-12-29T23:02:14.049Z,3.17
2022-12-29T23:05:02.835Z,2.57
2022-12-29T23:07:28.081Z,2.57
2022-12-29T23:09:54.780Z,3.00
2022-12-29T23:12:22.374Z,3.10
2022-12-29T23:14:48.957Z,2.87
2022-12-29T23:17:15.501Z,3.37
2022-12-29T23:19:42.262Z,2.40
2022-12-29T23:22:08.777Z,3.20
2022-12-29T23:24:35.419Z,2.83
2022-12-29T23:27:02.029Z,2.43
2022-12-29T23:29:28.645Z,2.80
2022-12-29T23:31:55.185Z,2.40
2022-12-29T23:34:21.786Z,3.20
2022-12-29T23:36:48.537Z,2.77
2022-12-29T23:39:24.413Z,2.93
2022-12-29T23:41:51.932Z,2.90
2022-12-29T23:44:18.586Z,2.90
2022-12-29T23:46:45.479Z,2.50
2022-12-29T23:49:12.394Z,3.43
2022-12-29T23:51:39.068Z,2.80
2022-12-29T23:54:05.900Z,3.10
2022-12-29T23:56:32.552Z,3.00
2022-12-29T23:58:59.065Z,2.93
